Glasgow, United Kingdom
Current Conditions -  °F | °C
As of 11:20 AM on Saturday 25 Oct 2014 (Local Time) from EGPF Reporting Station
Broken Clouds Broken Clouds  
Wind Chill: 11°   Ceiling: 2600
Heat Index: 11°   Visibility: 6mi
Dew Point: 10°   Wind: 21mph
Humidity: 94%   Direction: 220°SW
Pressure: 29.68"   Gusts: NA
Location:  55.87°N, 4.26°W
Report Text: EGPF 251020Z 22018KT 9999 SCT019 BKN026 11/10 Q1005
Loading
Personal Weather Stations






























Interactive Weather Map
Tropical Storm Tracking
New forecast layout! Learn more

10-Day Weather Forecast

Advertisements
Track Severe Weather on mobile